Capitol Logistics 995


FMEE
Roland Garros
St. Denis, FR
FIMP
Sir Seewoosagur Ramgoolam International Airport
Mauritius, MU

Activity Log

Date Flight Route Aircraft Duration
09/04/2020 CPX995 Not Available B763 0h 47m
03/30/2020 CPX995 EPTE1J EPTEK ETKIS FF FF1 B763 0h 41m
12/20/2019 CPX995 FF4C FF B763 0h 46m
11/17/2019 CPX995 Not Available B763 0h 41m

Route Details

Aircraft Information
Primary: Boeing 767-300BDSF
Backup: Not Available
Route Data
Distance: 125nm
Sched. Duration: 0h 25m
Avg. Duration: 0h 43m (+19m)
Times Flown: 4
Recm'd Route: Not Available
Planned Altitude: 15,000ft
Origin Wx: FMEE 251100Z AUTO 13017KT 9999 FEW045 BKN056 OVC070 25/18 Q1016 NOSIG
Dest. Wx: FIMP 251100Z 12013KT 9999 VCSH SCT016 BKN050 26/18 Q1017
Notes:

Financial History
Total Freight: 348,771lbs
Average Load: 87,193lbs/flt
Fuel Used: 26,755lbs
Avg. Fuel Used: 6,689lbs/flt
Fuel Expense: $32,641
Avg. Fuel Expense: $8,160
Avg. Fuel Cost: $1.22/lbs
Total Gross Income: $3,424,931
Pilot Pay: $806
Total Expenses: $370,101
Total Revenue: $3,021,659
Average Revenue: $856,232.80